Portada
METAR-TAF:

METAR-TAF

Aeropuertos :

Macomb Municipal Airport

Macomb, Illinois, Estados Unidos

latitud: 40-31-13N, longitud: 090-39-09W, altitud: 216 m

Observación

El informe se hizo hace 38 minutos, a las 20:35 UTC
Viento 3 kt del sur-sureste
Temperatura 32°C
Humedad 46%
Presión 1023 hPa
Visibilidad: 16.1 km
Nubes dispersas a una altura de 5500 ft
Nubes dispersas a una altura de 7000 ft

METAR: KMQB 192035Z AUTO 15003KT 10SM SCT055 SCT070 32/19 A3020 RMK AO2 T03210192

Hora: 16:13 (21:13 UTC)


TAF: falta

Observaciones y pronósticos meteorológicos de más de 4000 aeropuertos (mensajes METAR y TAF).

Los puntos amarillos y rojos representan las estaciones disponibles.

Ponga el ratón en el punto deseado para ver el nombre de la estación.

Haga clic para ver las observaciones y los pronósticos meteorológicos.

Para cambiar el mapa : haga clic en los botones verdes con una cruz de color negro para hacer un zoom, en el botón verde con un guión para alejar o en las flechas verdes para mapas adyacentes.


METAR-TAF: